Time;durP1;ratioP1;P1;durP2;ratioP2;P2;SDS_P1;SDS_P2;PMS_P1;PMS_P2;Temp;Humidity;BMP_temperature;BMP_pressure;BME280_temperature;BME280_humidity;BME280_pressure;Samples;Min_cycle;Max_cycle;Signal;HPM_P1;HPM_P2
2021/10/31 00:02:20;;;;;;;19.73;14.43;;;10.10;99.90;;;;;;5111998;28;20044;-72
2021/10/31 00:04:46;;;;;;;21.73;16.40;;;10.10;99.90;;;;;;5111289;28;20044;-71
2021/10/31 00:07:13;;;;;;;25.05;15.23;;;10.20;99.90;;;;;;5111732;28;20047;-73
2021/10/31 00:09:39;;;;;;;22.73;15.00;;;10.20;99.90;;;;;;5111749;28;20044;-72
2021/10/31 00:12:07;;;;;;;24.15;17.17;;;10.20;99.90;;;;;;5111691;28;20560;-72
2021/10/31 00:14:34;;;;;;;21.50;14.85;;;10.20;99.90;;;;;;5110991;28;20071;-71
2021/10/31 00:17:04;;;;;;;24.90;16.00;;;10.10;99.90;;;;;;5115089;28;20043;-71
2021/10/31 00:19:31;;;;;;;26.42;16.17;;;10.10;99.90;;;;;;5115360;28;20504;-72
2021/10/31 00:21:58;;;;;;;22.42;16.38;;;10.10;99.90;;;;;;5115569;28;20044;-72
2021/10/31 00:24:25;;;;;;;21.20;16.27;;;10.20;99.90;;;;;;5114879;28;20097;-72
2021/10/31 00:26:52;;;;;;;22.83;15.88;;;10.20;99.90;;;;;;5115090;28;20499;-73
2021/10/31 00:29:19;;;;;;;26.00;16.50;;;10.10;99.90;;;;;;5115286;28;20453;-72
2021/10/31 00:31:46;;;;;;;20.92;15.63;;;10.10;99.90;;;;;;5115250;28;20112;-72
2021/10/31 00:34:14;;;;;;;21.38;15.20;;;10.10;99.90;;;;;;5114812;28;20044;-71
2021/10/31 00:36:40;;;;;;;20.67;15.68;;;10.10;99.90;;;;;;5115026;28;20507;-72
2021/10/31 00:39:07;;;;;;;21.40;15.13;;;10.10;99.90;;;;;;5115020;27;20182;-74
2021/10/31 00:41:34;;;;;;;22.70;15.20;;;10.00;99.90;;;;;;5114934;28;20048;-74
2021/10/31 00:44:01;;;;;;;23.92;14.80;;;10.00;99.90;;;;;;5114638;28;20097;-73
2021/10/31 00:46:27;;;;;;;23.30;15.70;;;10.00;99.90;;;;;;5115127;28;20043;-75
2021/10/31 00:48:55;;;;;;;27.75;17.27;;;10.00;99.90;;;;;;5115249;28;20433;-74
2021/10/31 00:51:26;;;;;;;24.70;17.35;;;10.00;99.90;;;;;;5114900;28;20050;-75
2021/10/31 00:53:54;;;;;;;19.80;14.70;;;10.10;99.90;;;;;;5114493;28;20047;-74
2021/10/31 00:56:21;;;;;;;23.05;16.98;;;10.10;99.90;;;;;;5114751;28;20293;-73
2021/10/31 00:58:48;;;;;;;23.30;15.85;;;10.20;99.90;;;;;;5114542;28;20052;-74
2021/10/31 01:01:15;;;;;;;20.98;15.88;;;10.10;99.90;;;;;;5114589;27;20085;-74
2021/10/31 01:03:41;;;;;;;22.45;16.65;;;10.10;99.90;;;;;;5114184;28;20040;-74
2021/10/31 01:06:42;;;;;;;26.15;16.92;;;10.10;99.90;;;;;;5114628;28;20232;-71
2021/10/31 01:09:19;;;;;;;27.00;16.42;;;10.00;99.90;;;;;;5114384;28;20050;-72
2021/10/31 01:11:56;;;;;;;22.23;15.32;;;10.00;99.90;;;;;;5114494;28;20044;-71
2021/10/31 01:14:54;;;;;;;23.38;16.30;;;10.10;99.90;;;;;;5114196;28;20044;-72
2021/10/31 01:17:37;;;;;;;22.85;16.33;;;10.10;99.90;;;;;;5101675;28;20043;-71
2021/10/31 01:20:14;;;;;;;22.58;16.15;;;10.10;99.90;;;;;;5114335;28;20097;-75
2021/10/31 01:22:55;;;;;;;22.48;15.80;;;10.20;99.90;;;;;;5114506;28;20050;-73
2021/10/31 01:25:40;;;;;;;19.63;14.88;;;10.20;99.90;;;;;;5113679;28;20048;-72
2021/10/31 01:28:20;;;;;;;24.38;15.95;;;10.20;99.90;;;;;;5113639;28;20056;-72
2021/10/31 01:31:01;;;;;;;24.60;15.70;;;10.20;99.90;;;;;;5114099;28;20051;-72
2021/10/31 01:33:39;;;;;;;21.75;15.05;;;10.10;99.90;;;;;;5113747;27;20467;-72
2021/10/31 01:36:12;;;;;;;21.83;14.65;;;10.20;99.90;;;;;;5114172;28;20043;-72
2021/10/31 01:38:47;;;;;;;24.10;14.75;;;10.10;99.90;;;;;;5113927;28;20089;-73
2021/10/31 01:41:20;;;;;;;24.10;16.70;;;10.30;99.90;;;;;;5113785;28;20457;-72
2021/10/31 01:43:55;;;;;;;20.08;16.63;;;10.30;99.90;;;;;;5113271;28;20504;-73
2021/10/31 01:46:36;;;;;;;20.95;15.07;;;10.30;99.90;;;;;;5113511;28;20050;-73
2021/10/31 01:49:10;;;;;;;21.67;15.45;;;10.30;99.90;;;;;;5113725;28;20050;-74
2021/10/31 01:51:40;;;;;;;23.13;16.00;;;10.30;99.90;;;;;;5113770;28;20047;-74
2021/10/31 01:54:13;;;;;;;25.55;16.65;;;10.30;99.90;;;;;;5112872;28;20591;-74
2021/10/31 01:56:43;;;;;;;21.15;15.45;;;10.30;99.90;;;;;;5113553;28;20047;-74
2021/10/31 01:59:15;;;;;;;19.60;14.95;;;10.30;99.90;;;;;;5113508;28;20092;-75
2021/10/31 02:01:44;;;;;;;20.73;15.15;;;10.30;99.90;;;;;;5113338;28;20089;-75
2021/10/31 02:04:14;;;;;;;21.20;15.20;;;10.30;99.90;;;;;;5112816;27;20088;-72
2021/10/31 02:06:44;;;;;;;23.38;15.32;;;10.30;99.90;;;;;;5113271;27;20043;-73
2021/10/31 02:09:14;;;;;;;22.52;16.38;;;10.20;99.90;;;;;;5113299;28;20039;-73
2021/10/31 02:11:44;;;;;;;21.63;15.80;;;10.20;99.90;;;;;;5113372;28;20047;-73
2021/10/31 02:14:11;;;;;;;22.70;15.02;;;10.00;99.90;;;;;;5112766;28;20043;-73
2021/10/31 02:16:39;;;;;;;21.88;15.55;;;9.90;99.90;;;;;;5113270;28;20411;-73
2021/10/31 02:19:09;;;;;;;22.38;16.08;;;9.90;99.90;;;;;;5112820;28;20089;-74
2021/10/31 02:21:37;;;;;;;24.52;15.73;;;9.90;99.90;;;;;;5112920;28;20064;-74
2021/10/31 02:24:09;;;;;;;18.95;14.85;;;9.80;99.90;;;;;;5112977;28;20044;-74
2021/10/31 02:26:36;;;;;;;20.33;14.32;;;9.80;99.90;;;;;;5113117;28;20043;-75
2021/10/31 02:29:07;;;;;;;20.13;14.63;;;9.80;99.90;;;;;;5111630;28;20065;-74
2021/10/31 02:31:35;;;;;;;23.27;15.75;;;9.70;99.90;;;;;;5112822;28;20063;-71
2021/10/31 02:34:05;;;;;;;21.70;14.23;;;9.60;99.90;;;;;;5112143;28;20039;-71
2021/10/31 02:36:32;;;;;;;29.65;17.17;;;9.60;99.90;;;;;;5112829;28;20150;-72
2021/10/31 02:39:01;;;;;;;23.98;16.27;;;9.60;99.90;;;;;;5112365;28;20092;-72
2021/10/31 02:41:29;;;;;;;20.83;15.50;;;9.60;99.90;;;;;;5112212;28;20415;-72
2021/10/31 02:43:56;;;;;;;22.88;15.30;;;9.60;99.90;;;;;;5112174;27;20043;-72
2021/10/31 02:46:23;;;;;;;24.35;15.35;;;9.60;99.90;;;;;;5112784;28;20047;-71
2021/10/31 02:48:50;;;;;;;21.75;14.85;;;9.60;99.90;;;;;;5112338;27;20388;-70
2021/10/31 02:51:26;;;;;;;21.00;16.23;;;9.60;99.90;;;;;;5112565;28;20044;-73
2021/10/31 02:53:59;;;;;;;21.42;14.02;;;9.50;99.90;;;;;;5112097;28;20044;-71
2021/10/31 02:56:29;;;;;;;21.33;14.50;;;9.50;99.90;;;;;;5111977;28;20557;-72
2021/10/31 02:59:06;;;;;;;23.65;14.85;;;9.50;99.90;;;;;;5112352;28;20096;-72
2021/10/31 03:01:35;;;;;;;22.27;14.48;;;9.60;99.90;;;;;;5112181;28;20039;-72
2021/10/31 03:04:02;;;;;;;23.98;15.80;;;9.70;99.90;;;;;;5112030;28;20040;-72
2021/10/31 03:06:29;;;;;;;22.73;15.80;;;9.70;99.90;;;;;;5112299;28;20108;-72
2021/10/31 03:08:55;;;;;;;25.67;15.63;;;9.70;99.90;;;;;;5112304;28;20541;-72
2021/10/31 03:11:22;;;;;;;23.23;16.05;;;9.60;99.90;;;;;;5112380;28;20047;-73
2021/10/31 03:13:49;;;;;;;23.35;15.43;;;9.70;99.90;;;;;;5111717;28;20047;-71
2021/10/31 03:16:17;;;;;;;23.90;16.05;;;9.60;99.90;;;;;;5112041;28;20544;-72
2021/10/31 03:18:43;;;;;;;21.15;14.57;;;9.70;99.90;;;;;;5112111;28;20096;-72
2021/10/31 03:21:10;;;;;;;21.05;15.38;;;9.70;99.90;;;;;;5112134;28;20101;-73
2021/10/31 03:23:37;;;;;;;21.98;14.18;;;9.60;99.90;;;;;;5111671;28;20048;-72
2021/10/31 03:26:04;;;;;;;19.08;15.25;;;9.60;99.90;;;;;;5112187;28;20097;-72
2021/10/31 03:28:31;;;;;;;20.95;14.93;;;9.60;99.90;;;;;;5112356;28;20044;-74
2021/10/31 03:30:58;;;;;;;22.15;15.45;;;9.70;99.90;;;;;;5112205;28;20450;-73
2021/10/31 03:33:26;;;;;;;20.30;14.93;;;9.60;99.90;;;;;;5111568;28;20052;-72
2021/10/31 03:35:53;;;;;;;22.25;14.75;;;9.60;99.90;;;;;;5112005;28;20065;-73
2021/10/31 03:38:21;;;;;;;23.60;15.13;;;9.70;99.90;;;;;;5111867;28;20048;-72
2021/10/31 03:40:49;;;;;;;20.73;14.85;;;9.60;99.90;;;;;;5111736;28;20510;-73
2021/10/31 03:43:16;;;;;;;23.27;15.00;;;9.60;99.90;;;;;;5111704;28;20069;-72
2021/10/31 03:45:44;;;;;;;22.02;14.73;;;9.70;99.90;;;;;;5111923;28;20047;-72
2021/10/31 03:48:11;;;;;;;23.55;15.65;;;9.60;99.90;;;;;;5111982;28;20487;-73
2021/10/31 03:50:39;;;;;;;20.00;13.75;;;9.60;99.90;;;;;;5112306;28;20434;-73
2021/10/31 03:53:05;;;;;;;22.05;15.82;;;9.60;99.90;;;;;;5115752;28;20096;-72
2021/10/31 03:55:32;;;;;;;26.42;15.93;;;9.50;99.90;;;;;;5115547;28;20043;-72
2021/10/31 03:57:58;;;;;;;18.52;14.98;;;9.60;99.90;;;;;;5115915;27;20047;-73
2021/10/31 04:00:25;;;;;;;21.38;12.95;;;9.60;99.90;;;;;;5115679;28;20043;-74
2021/10/31 04:02:52;;;;;;;20.65;15.27;;;9.50;99.90;;;;;;5115752;28;20100;-74
2021/10/31 04:05:19;;;;;;;23.88;15.38;;;9.50;99.90;;;;;;5115228;28;20048;-73
2021/10/31 04:07:47;;;;;;;22.17;14.52;;;9.30;99.90;;;;;;5115555;28;20092;-73
2021/10/31 04:10:15;;;;;;;21.92;15.23;;;9.40;99.90;;;;;;5115864;28;20043;-73
2021/10/31 04:12:41;;;;;;;21.00;13.52;;;9.40;99.90;;;;;;5115779;28;20043;-74
2021/10/31 04:15:09;;;;;;;20.40;14.65;;;9.50;99.90;;;;;;5115101;28;20043;-74
2021/10/31 04:17:36;;;;;;;20.20;14.45;;;9.40;99.90;;;;;;5115504;28;20069;-75
2021/10/31 04:20:03;;;;;;;19.88;13.90;;;9.30;99.90;;;;;;5115242;28;20101;-74
2021/10/31 04:22:30;;;;;;;22.15;13.95;;;9.30;99.90;;;;;;5115277;28;20043;-74
2021/10/31 04:24:59;;;;;;;20.15;14.20;;;9.30;99.90;;;;;;5115066;28;20047;-73
2021/10/31 04:27:25;;;;;;;26.77;16.08;;;9.30;99.90;;;;;;5115366;28;20131;-73
2021/10/31 04:29:52;;;;;;;20.33;14.20;;;9.30;99.90;;;;;;5115351;28;20073;-75
2021/10/31 04:32:19;;;;;;;21.10;14.40;;;9.20;99.90;;;;;;5115217;28;20047;-73
2021/10/31 04:34:46;;;;;;;21.92;14.98;;;9.10;99.90;;;;;;5114553;28;20043;-73
2021/10/31 04:37:12;;;;;;;24.10;15.73;;;9.10;99.90;;;;;;5115018;28;20052;-71
2021/10/31 04:39:41;;;;;;;23.85;16.98;;;9.10;99.90;;;;;;5115337;27;20096;-73
2021/10/31 04:42:10;;;;;;;19.67;14.15;;;9.10;99.90;;;;;;5115015;28;20043;-74
2021/10/31 04:44:38;;;;;;;22.00;14.98;;;9.10;99.90;;;;;;5114508;28;20055;-72
2021/10/31 04:47:06;;;;;;;20.83;15.05;;;9.10;99.90;;;;;;5114894;28;20050;-72
2021/10/31 04:49:33;;;;;;;25.85;15.75;;;9.10;99.90;;;;;;5114685;27;20104;-74
2021/10/31 04:52:00;;;;;;;22.07;15.37;;;9.00;99.90;;;;;;5114770;28;20530;-74
2021/10/31 04:54:26;;;;;;;21.87;14.67;;;9.00;99.90;;;;;;5114424;28;20044;-74
2021/10/31 04:56:53;;;;;;;24.08;16.02;;;9.00;99.90;;;;;;5114754;27;20044;-73
2021/10/31 04:59:21;;;;;;;22.27;15.00;;;8.80;99.90;;;;;;5114944;28;20043;-73
2021/10/31 05:01:49;;;;;;;20.90;14.50;;;8.70;99.90;;;;;;5114481;28;20101;-73
2021/10/31 05:04:17;;;;;;;27.73;16.65;;;8.80;99.90;;;;;;5113352;28;20050;-73
2021/10/31 05:06:44;;;;;;;23.25;14.80;;;8.80;99.90;;;;;;5114760;28;20055;-73
2021/10/31 05:09:10;;;;;;;20.10;14.57;;;8.80;99.90;;;;;;5114612;28;20039;-74
2021/10/31 05:11:37;;;;;;;26.15;16.58;;;8.80;99.90;;;;;;5114523;28;20465;-74
2021/10/31 05:14:04;;;;;;;22.53;14.90;;;9.00;99.90;;;;;;5113985;28;20104;-74
2021/10/31 05:16:32;;;;;;;20.63;14.50;;;8.90;99.90;;;;;;5114361;28;20411;-73
2021/10/31 05:18:59;;;;;;;27.57;16.63;;;8.90;99.90;;;;;;5114484;28;20078;-73
2021/10/31 05:21:26;;;;;;;23.15;15.90;;;8.80;99.90;;;;;;5114469;28;20474;-74
2021/10/31 05:23:52;;;;;;;20.92;15.73;;;8.90;99.90;;;;;;5113964;28;20043;-75
2021/10/31 05:26:19;;;;;;;22.40;14.65;;;8.90;99.90;;;;;;5114323;28;20039;-73
2021/10/31 05:28:46;;;;;;;20.20;15.80;;;8.90;99.90;;;;;;5114005;28;20047;-74
2021/10/31 05:31:12;;;;;;;22.85;16.25;;;9.00;99.90;;;;;;5113981;27;20051;-74
2021/10/31 05:33:41;;;;;;;20.07;15.17;;;8.90;99.90;;;;;;5113721;28;20055;-74
2021/10/31 05:36:07;;;;;;;21.63;15.23;;;8.90;99.90;;;;;;5114125;28;20090;-72
2021/10/31 05:38:34;;;;;;;23.80;16.30;;;8.90;99.90;;;;;;5113940;28;20043;-73
2021/10/31 05:41:03;;;;;;;21.25;14.68;;;9.00;99.90;;;;;;5114308;27;20093;-72
2021/10/31 05:43:29;;;;;;;23.45;15.77;;;9.00;99.90;;;;;;5113305;28;20048;-73
2021/10/31 05:45:56;;;;;;;22.70;15.02;;;9.10;99.90;;;;;;5113573;28;20043;-72
2021/10/31 05:48:23;;;;;;;28.13;16.35;;;9.10;99.90;;;;;;5113886;28;20044;-74
2021/10/31 05:50:53;;;;;;;24.10;14.70;;;9.20;99.90;;;;;;5113870;27;20056;-73
2021/10/31 05:53:20;;;;;;;23.67;16.38;;;9.10;99.90;;;;;;5113110;27;20043;-72
2021/10/31 05:55:46;;;;;;;24.55;16.27;;;9.10;99.90;;;;;;5113542;28;20047;-73
2021/10/31 05:58:13;;;;;;;25.05;16.52;;;9.10;99.90;;;;;;5113442;27;20105;-72
2021/10/31 06:00:40;;;;;;;29.17;17.08;;;9.20;99.90;;;;;;5113483;28;20051;-72
2021/10/31 06:03:06;;;;;;;22.35;14.80;;;9.20;99.90;;;;;;5113271;28;20047;-72
2021/10/31 06:05:33;;;;;;;25.45;16.77;;;9.20;99.90;;;;;;5113530;28;20051;-72
2021/10/31 06:08:01;;;;;;;20.30;15.18;;;9.10;99.90;;;;;;5113363;28;20043;-72
2021/10/31 06:10:28;;;;;;;23.70;15.02;;;9.20;99.90;;;;;;5113204;28;20040;-72
2021/10/31 06:12:55;;;;;;;23.73;16.42;;;9.20;99.90;;;;;;5113170;27;20073;-73
2021/10/31 06:15:23;;;;;;;28.10;17.17;;;9.20;99.90;;;;;;5112759;28;20088;-72
2021/10/31 06:17:51;;;;;;;21.50;16.20;;;9.20;99.90;;;;;;5113325;28;20092;-73
2021/10/31 06:20:18;;;;;;;23.17;17.13;;;9.20;99.90;;;;;;5113138;27;20124;-72
2021/10/31 06:22:44;;;;;;;23.85;15.57;;;9.40;99.90;;;;;;5113066;28;20384;-71
2021/10/31 06:25:13;;;;;;;28.27;17.38;;;9.50;99.90;;;;;;5112562;28;20497;-71
2021/10/31 06:27:40;;;;;;;29.05;17.83;;;9.60;99.90;;;;;;5113133;28;20051;-72
2021/10/31 06:30:08;;;;;;;23.17;15.73;;;9.70;99.90;;;;;;5113040;28;20040;-71
2021/10/31 06:32:35;;;;;;;25.40;16.05;;;9.90;99.90;;;;;;5112963;28;20089;-72
2021/10/31 06:35:02;;;;;;;24.17;16.58;;;9.80;99.90;;;;;;5112370;28;20040;-73
2021/10/31 06:37:29;;;;;;;23.52;17.80;;;9.80;99.90;;;;;;5112788;28;20043;-74
2021/10/31 06:39:56;;;;;;;23.85;16.15;;;9.80;99.90;;;;;;5112590;28;20548;-72
2021/10/31 06:42:26;;;;;;;23.50;15.75;;;9.90;99.90;;;;;;5112957;28;20051;-72
2021/10/31 06:44:53;;;;;;;25.27;15.55;;;10.00;99.90;;;;;;5112386;28;20073;-71
2021/10/31 06:47:21;;;;;;;23.17;14.98;;;10.10;99.90;;;;;;5112711;28;20100;-72
2021/10/31 06:49:47;;;;;;;25.45;16.13;;;10.10;99.90;;;;;;5112581;28;20044;-71
2021/10/31 06:52:14;;;;;;;26.27;17.38;;;10.10;99.90;;;;;;5112318;28;20411;-72
2021/10/31 06:54:40;;;;;;;21.10;14.35;;;10.00;99.90;;;;;;5112395;28;20043;-71
2021/10/31 06:57:07;;;;;;;21.63;16.40;;;10.10;99.90;;;;;;5112529;28;20096;-71
2021/10/31 06:59:35;;;;;;;21.08;15.95;;;10.20;99.90;;;;;;5112328;28;20458;-73
2021/10/31 07:02:02;;;;;;;23.25;16.30;;;10.30;99.90;;;;;;5112226;28;20047;-74
2021/10/31 07:04:30;;;;;;;20.17;14.82;;;10.30;99.90;;;;;;5111698;28;20043;-74
2021/10/31 07:06:56;;;;;;;26.05;16.83;;;10.30;99.90;;;;;;5112148;28;20151;-72
2021/10/31 07:09:23;;;;;;;23.67;15.77;;;10.30;99.90;;;;;;5112408;28;20077;-72
2021/10/31 07:11:49;;;;;;;25.55;14.68;;;10.50;99.90;;;;;;5112423;28;20044;-74
2021/10/31 07:14:16;;;;;;;23.23;16.50;;;10.70;99.90;;;;;;5111766;28;20043;-73
2021/10/31 07:16:44;;;;;;;20.42;15.40;;;10.90;99.90;;;;;;5112330;28;20052;-73
2021/10/31 07:19:11;;;;;;;26.67;15.10;;;11.10;99.90;;;;;;5111906;28;20085;-73
2021/10/31 07:21:38;;;;;;;21.88;15.70;;;11.20;99.90;;;;;;5111939;28;20039;-73
2021/10/31 07:24:05;;;;;;;24.88;15.35;;;11.40;99.90;;;;;;5111775;28;20419;-75
2021/10/31 07:26:32;;;;;;;25.95;16.23;;;11.60;99.90;;;;;;5111547;28;20047;-73
2021/10/31 07:28:58;;;;;;;25.33;15.65;;;12.00;99.90;;;;;;5112023;28;20093;-75
2021/10/31 07:31:29;;;;;;;23.08;14.82;;;12.30;99.90;;;;;;5112046;28;20081;-79
2021/10/31 07:33:58;;;;;;;26.25;16.20;;;12.80;99.90;;;;;;5111564;28;20044;-74
2021/10/31 07:36:24;;;;;;;19.75;15.30;;;13.00;99.90;;;;;;5112505;28;20134;-73
2021/10/31 07:38:51;;;;;;;21.10;15.35;;;13.00;99.90;;;;;;5112036;28;20044;-74
2021/10/31 07:41:17;;;;;;;21.42;12.75;;;13.20;99.90;;;;;;5111754;28;20569;-74
2021/10/31 07:43:44;;;;;;;21.40;15.20;;;13.10;99.90;;;;;;5111536;28;20047;-72
2021/10/31 07:46:11;;;;;;;18.42;13.95;;;13.20;99.90;;;;;;5112406;28;20111;-71
2021/10/31 07:48:37;;;;;;;20.70;13.82;;;13.80;99.90;;;;;;5111592;28;20043;-72
2021/10/31 07:51:05;;;;;;;20.50;14.45;;;14.30;99.90;;;;;;5111963;28;20044;-72
2021/10/31 07:53:32;;;;;;;18.35;13.98;;;14.50;99.90;;;;;;5111380;28;20461;-72
2021/10/31 07:55:58;;;;;;;20.73;14.50;;;14.50;99.90;;;;;;5111752;28;20044;-73
2021/10/31 07:58:26;;;;;;;20.13;14.25;;;15.10;99.90;;;;;;5111695;28;20048;-74
2021/10/31 08:00:53;;;;;;;21.00;15.63;;;15.50;99.90;;;;;;5111736;28;20058;-75
2021/10/31 08:03:20;;;;;;;17.52;13.23;;;15.90;99.90;;;;;;5111246;28;20146;-74
2021/10/31 08:05:48;;;;;;;19.13;14.40;;;15.80;99.90;;;;;;5112021;28;20426;-73
2021/10/31 08:08:17;;;;;;;19.65;14.65;;;15.70;99.90;;;;;;5111772;28;20051;-73
2021/10/31 08:10:46;;;;;;;20.70;14.65;;;16.00;99.90;;;;;;5111586;28;20048;-75
2021/10/31 08:13:20;;;;;;;23.02;14.93;;;15.90;99.90;;;;;;5111288;28;20437;-75
2021/10/31 08:15:46;;;;;;;21.20;12.15;;;16.00;99.90;;;;;;5111466;28;20043;-75
2021/10/31 08:18:13;;;;;;;19.33;13.73;;;15.70;99.90;;;;;;5111751;28;20089;-74
2021/10/31 08:20:40;;;;;;;17.63;12.90;;;15.70;99.90;;;;;;5111624;28;20100;-74
2021/10/31 08:23:07;;;;;;;19.02;14.02;;;15.90;99.90;;;;;;5111534;28;20089;-74
2021/10/31 08:25:35;;;;;;;18.05;13.15;;;15.90;99.90;;;;;;5111518;28;20069;-76
2021/10/31 08:28:04;;;;;;;20.58;15.60;;;16.20;99.90;;;;;;5111456;28;20039;-75
2021/10/31 08:30:31;;;;;;;18.58;14.20;;;16.00;99.90;;;;;;5111353;28;20131;-73
2021/10/31 08:33:05;;;;;;;18.33;13.60;;;16.60;99.90;;;;;;5111428;28;20060;-72
2021/10/31 08:35:32;;;;;;;19.48;13.50;;;17.20;99.90;;;;;;5111362;28;20053;-74
2021/10/31 08:37:59;;;;;;;18.02;13.45;;;16.80;99.90;;;;;;5112056;28;20070;-75
2021/10/31 08:40:25;;;;;;;16.80;13.18;;;17.20;99.90;;;;;;5114907;27;20514;-75
2021/10/31 08:42:54;;;;;;;17.20;12.85;;;17.70;99.90;;;;;;5114937;28;20055;-75
2021/10/31 08:45:20;;;;;;;17.85;13.38;;;17.90;99.90;;;;;;5114746;27;20051;-76
2021/10/31 08:47:47;;;;;;;18.92;12.25;;;18.20;99.90;;;;;;5114877;28;20073;-74
2021/10/31 08:50:13;;;;;;;17.17;12.50;;;18.50;99.90;;;;;;5114954;28;20491;-73
2021/10/31 08:52:42;;;;;;;15.38;11.30;;;18.20;99.50;;;;;;5114875;28;20067;-73
2021/10/31 08:55:09;;;;;;;17.45;13.45;;;17.80;99.90;;;;;;5115664;28;20134;-73
2021/10/31 08:57:36;;;;;;;15.23;11.80;;;18.00;99.90;;;;;;5114516;28;20047;-76
2021/10/31 09:00:05;;;;;;;16.10;12.45;;;18.00;99.90;;;;;;5114673;28;20104;-71
2021/10/31 09:02:31;;;;;;;15.10;11.85;;;18.00;99.90;;;;;;5114792;28;20047;-70
2021/10/31 09:04:58;;;;;;;15.15;11.82;;;18.40;99.90;;;;;;5114521;28;20480;-74
2021/10/31 09:07:25;;;;;;;17.35;13.10;;;18.60;98.90;;;;;;5114664;28;20097;-77
2021/10/31 09:09:52;;;;;;;18.40;12.32;;;18.60;99.00;;;;;;5114225;27;20560;-72
2021/10/31 09:12:18;;;;;;;18.67;13.63;;;18.80;98.80;;;;;;5114497;28;20040;-73
2021/10/31 09:14:45;;;;;;;14.80;11.60;;;19.70;97.30;;;;;;5113968;27;20043;-74
2021/10/31 09:17:14;;;;;;;15.52;11.98;;;20.50;94.90;;;;;;5114427;28;20047;-75
2021/10/31 09:19:41;;;;;;;17.55;12.52;;;20.90;91.90;;;;;;5114314;28;20055;-73
2021/10/31 09:22:08;;;;;;;15.90;12.45;;;21.00;91.20;;;;;;5114235;28;20484;-76
2021/10/31 09:24:35;;;;;;;13.80;12.20;;;20.50;91.30;;;;;;5113977;28;20046;-75
2021/10/31 09:27:03;;;;;;;14.00;10.88;;;20.70;91.10;;;;;;5114247;28;20412;-76
2021/10/31 09:29:30;;;;;;;14.10;11.93;;;20.30;90.80;;;;;;5114198;28;20411;-77
2021/10/31 09:31:57;;;;;;;13.43;11.20;;;20.20;92.00;;;;;;5114674;28;20043;-73
2021/10/31 09:34:27;;;;;;;13.55;11.70;;;20.30;92.20;;;;;;5113650;28;20044;-73
2021/10/31 09:36:54;;;;;;;13.10;11.73;;;20.30;91.90;;;;;;5114223;28;20108;-74
2021/10/31 09:39:20;;;;;;;13.70;10.63;;;20.50;91.40;;;;;;5116034;28;20122;-74
2021/10/31 09:41:48;;;;;;;11.88;10.00;;;21.20;91.00;;;;;;5115485;28;20047;-73
2021/10/31 09:44:19;;;;;;;12.13;10.38;;;21.70;88.50;;;;;;5115485;28;20477;-73
2021/10/31 09:46:46;;;;;;;12.30;10.02;;;22.20;87.00;;;;;;5114802;28;20047;-73
2021/10/31 09:49:13;;;;;;;13.20;9.93;;;23.40;81.20;;;;;;5113981;28;20089;-74
2021/10/31 09:51:44;;;;;;;13.57;10.32;;;22.70;81.30;;;;;;5114417;28;20108;-72
2021/10/31 09:54:11;;;;;;;11.23;9.83;;;22.70;79.60;;;;;;5113461;28;20051;-73
2021/10/31 09:56:39;;;;;;;11.18;9.65;;;23.80;77.70;;;;;;5113791;28;20356;-72
2021/10/31 09:59:11;;;;;;;12.95;10.30;;;23.90;76.70;;;;;;5113388;28;20457;-74
2021/10/31 10:01:51;;;;;;;11.55;9.48;;;23.40;77.70;;;;;;5113216;27;20093;-73
2021/10/31 10:04:29;;;;;;;11.43;9.93;;;23.40;78.00;;;;;;5112625;28;20044;-73
2021/10/31 10:06:59;;;;;;;13.45;10.23;;;23.00;77.30;;;;;;5113356;28;20171;-73
2021/10/31 10:09:27;;;;;;;12.20;9.63;;;22.80;78.60;;;;;;5113834;28;20039;-73
2021/10/31 10:11:54;;;;;;;12.60;9.75;;;23.20;76.80;;;;;;5113381;28;20130;-72
2021/10/31 10:14:26;;;;;;;12.40;8.52;;;23.50;77.40;;;;;;5112873;28;20052;-76
2021/10/31 10:16:57;;;;;;;9.88;8.63;;;22.90;78.10;;;;;;5115537;28;20044;-73
2021/10/31 10:19:26;;;;;;;12.82;9.50;;;23.70;76.30;;;;;;5114441;28;20073;-72
2021/10/31 10:22:00;;;;;;;9.73;8.38;;;24.80;73.30;;;;;;5113448;28;20445;-73
2021/10/31 10:24:28;;;;;;;10.13;8.63;;;24.90;71.10;;;;;;5112210;28;20116;-73
2021/10/31 10:26:59;;;;;;;9.32;8.43;;;23.30;74.70;;;;;;5112422;28;20459;-73
2021/10/31 10:29:29;;;;;;;10.02;8.18;;;24.10;73.20;;;;;;5112423;28;20039;-73
2021/10/31 10:31:59;;;;;;;8.68;7.82;;;24.30;73.70;;;;;;5112989;28;20131;-74
2021/10/31 10:34:41;;;;;;;8.73;7.57;;;23.40;75.30;;;;;;5113085;28;20045;-74
2021/10/31 10:37:12;;;;;;;8.38;7.65;;;24.30;74.80;;;;;;5113010;28;20491;-73
2021/10/31 10:39:40;;;;;;;8.98;7.45;;;25.20;70.80;;;;;;5112972;28;20044;-76
2021/10/31 10:42:07;;;;;;;9.30;8.00;;;25.80;68.60;;;;;;5112892;28;20047;-71
2021/10/31 10:44:36;;;;;;;12.57;8.43;;;25.40;68.80;;;;;;5112423;28;20453;-72
2021/10/31 10:47:05;;;;;;;11.15;8.27;;;25.50;69.30;;;;;;5112938;28;20287;-74
2021/10/31 10:49:35;;;;;;;9.38;8.27;;;24.30;70.20;;;;;;5113195;28;20050;-73
2021/10/31 10:52:21;;;;;;;9.95;8.25;;;24.00;72.00;;;;;;5114621;28;20059;-75
2021/10/31 10:54:51;;;;;;;9.73;8.18;;;23.20;74.90;;;;;;5113700;28;20047;-72
2021/10/31 10:57:18;;;;;;;9.57;8.43;;;22.80;77.60;;;;;;5113614;28;20043;-73
2021/10/31 10:59:50;;;;;;;10.10;9.05;;;23.30;75.60;;;;;;5113704;28;20502;-74
2021/10/31 11:02:18;;;;;;;11.25;10.07;;;24.00;73.50;;;;;;5113052;28;20043;-73
2021/10/31 11:04:47;;;;;;;10.32;8.73;;;23.50;74.30;;;;;;5113824;28;20076;-73
2021/10/31 11:07:15;;;;;;;11.10;9.05;;;23.30;75.50;;;;;;5113811;28;20040;-73
2021/10/31 11:09:43;;;;;;;9.25;8.35;;;23.90;73.60;;;;;;5113704;28;20051;-72
2021/10/31 11:12:28;;;;;;;9.88;8.35;;;24.10;72.90;;;;;;5113901;28;20449;-73
2021/10/31 11:14:57;;;;;;;11.70;8.52;;;23.60;74.20;;;;;;5114460;27;20047;-72
2021/10/31 11:17:24;;;;;;;9.75;8.75;;;23.90;73.10;;;;;;5114463;28;20048;-74
2021/10/31 11:19:53;;;;;;;10.55;8.90;;;23.50;73.80;;;;;;5115016;28;20129;-72
2021/10/31 11:22:22;;;;;;;9.07;8.18;;;23.90;73.20;;;;;;5115556;28;20047;-73
2021/10/31 11:24:50;;;;;;;11.52;8.63;;;23.10;75.50;;;;;;5115439;28;20048;-72
2021/10/31 11:27:19;;;;;;;11.10;8.80;;;22.90;76.70;;;;;;5115783;28;20044;-72
2021/10/31 11:29:47;;;;;;;11.30;8.77;;;22.30;77.30;;;;;;5115195;28;20411;-73
2021/10/31 11:32:15;;;;;;;12.68;9.07;;;22.20;80.00;;;;;;5113423;28;20108;-74
2021/10/31 11:34:45;;;;;;;13.57;10.52;;;22.20;78.90;;;;;;5112021;28;20055;-72
2021/10/31 11:37:14;;;;;;;10.50;8.52;;;22.90;77.00;;;;;;5112116;28;20044;-73
2021/10/31 11:39:43;;;;;;;11.13;9.32;;;23.60;74.00;;;;;;5112363;28;20479;-71
2021/10/31 11:42:10;;;;;;;9.48;8.48;;;22.70;76.80;;;;;;5111730;28;20051;-72
2021/10/31 11:45:16;;;;;;;10.38;8.90;;;23.10;77.00;;;;;;5112532;28;20044;-72
2021/10/31 11:47:45;;;;;;;9.25;7.57;;;23.40;76.00;;;;;;5100147;28;20059;-73
2021/10/31 11:50:16;;;;;;;11.57;8.73;;;24.20;72.70;;;;;;5115889;28;20047;-72
2021/10/31 11:52:48;;;;;;;9.85;8.75;;;24.30;72.80;;;;;;5115555;28;20047;-73
2021/10/31 11:55:51;;;;;;;12.30;9.23;;;24.20;71.30;;;;;;5114976;28;20059;-71
2021/10/31 11:58:46;;;;;;;10.15;8.13;;;23.40;74.00;;;;;;5103358;28;20142;-73
2021/10/31 12:01:17;;;;;;;10.23;9.00;;;23.30;76.30;;;;;;5098295;28;20052;-73
2021/10/31 12:03:47;;;;;;;9.63;8.68;;;23.70;74.00;;;;;;5111389;28;20055;-71
2021/10/31 12:06:54;;;;;;;10.13;8.38;;;24.30;73.10;;;;;;5111748;28;20090;-72
2021/10/31 12:09:28;;;;;;;12.43;8.68;;;23.60;73.80;;;;;;5106655;28;20119;-73
2021/10/31 12:12:21;;;;;;;9.05;7.97;;;23.70;74.00;;;;;;5112798;28;20555;-72
2021/10/31 12:14:59;;;;;;;9.48;8.43;;;23.60;74.20;;;;;;5115551;28;20047;-73
2021/10/31 12:17:28;;;;;;;10.00;7.90;;;22.90;76.10;;;;;;5115725;28;20039;-73
2021/10/31 12:19:58;;;;;;;10.07;8.25;;;22.50;78.10;;;;;;5115953;28;20051;-73
2021/10/31 12:22:36;;;;;;;9.50;8.40;;;22.30;78.70;;;;;;5115656;28;20075;-72
2021/10/31 12:25:06;;;;;;;9.63;7.85;;;22.30;78.60;;;;;;5115121;28;20047;-74
2021/10/31 12:27:44;;;;;;;10.85;9.07;;;22.60;78.80;;;;;;5115847;28;20040;-72
2021/10/31 12:30:40;;;;;;;9.73;8.20;;;22.80;77.00;;;;;;5115467;27;20469;-72
2021/10/31 12:33:10;;;;;;;12.63;9.32;;;22.20;78.70;;;;;;5115147;28;20044;-73
2021/10/31 12:35:39;;;;;;;10.93;9.30;;;21.70;80.90;;;;;;5115587;28;20096;-73
2021/10/31 12:38:32;;;;;;;11.73;9.93;;;22.00;81.00;;;;;;5115332;28;20103;-74
2021/10/31 12:41:24;;;;;;;11.55;10.07;;;22.50;78.20;;;;;;5115547;27;20083;-72
2021/10/31 12:43:56;;;;;;;11.02;9.77;;;22.30;79.50;;;;;;5114430;28;20101;-73
2021/10/31 12:46:26;;;;;;;14.77;9.68;;;22.60;78.30;;;;;;5115289;28;20134;-73